sensor_id;sensor_type;location;lat;lon;timestamp;P1;durP1;ratioP1;P2;durP2;ratioP2
38499;SDS011;24269;51.894;4.622;2023-02-01T00:01:39;15.35;;;1.70;;
38499;SDS011;24269;51.894;4.622;2023-02-01T00:04:04;13.70;;;1.95;;
38499;SDS011;24269;51.894;4.622;2023-02-01T00:06:30;12.15;;;2.30;;
38499;SDS011;24269;51.894;4.622;2023-02-01T00:08:56;6.43;;;1.23;;
38499;SDS011;24269;51.894;4.622;2023-02-01T00:11:22;8.38;;;1.50;;
38499;SDS011;24269;51.894;4.622;2023-02-01T00:13:48;14.60;;;1.50;;
38499;SDS011;24269;51.894;4.622;2023-02-01T00:16:16;7.47;;;1.52;;
38499;SDS011;24269;51.894;4.622;2023-02-01T00:18:46;12.32;;;2.15;;
38499;SDS011;24269;51.894;4.622;2023-02-01T00:21:15;10.20;;;1.75;;
38499;SDS011;24269;51.894;4.622;2023-02-01T00:23:42;8.65;;;1.77;;
38499;SDS011;24269;51.894;4.622;2023-02-01T00:26:15;16.02;;;1.73;;
38499;SDS011;24269;51.894;4.622;2023-02-01T00:28:47;11.27;;;1.90;;
38499;SDS011;24269;51.894;4.622;2023-02-01T00:31:13;9.75;;;1.73;;
38499;SDS011;24269;51.894;4.622;2023-02-01T00:33:39;9.55;;;1.70;;
38499;SDS011;24269;51.894;4.622;2023-02-01T00:36:06;12.25;;;1.60;;
38499;SDS011;24269;51.894;4.622;2023-02-01T00:38:33;13.38;;;2.50;;
38499;SDS011;24269;51.894;4.622;2023-02-01T00:41:11;8.20;;;1.80;;
38499;SDS011;24269;51.894;4.622;2023-02-01T00:43:44;15.00;;;2.45;;
38499;SDS011;24269;51.894;4.622;2023-02-01T00:46:11;7.70;;;1.35;;
38499;SDS011;24269;51.894;4.622;2023-02-01T00:48:37;11.07;;;2.42;;
38499;SDS011;24269;51.894;4.622;2023-02-01T00:51:05;8.57;;;1.80;;
38499;SDS011;24269;51.894;4.622;2023-02-01T00:53:32;9.30;;;1.73;;
38499;SDS011;24269;51.894;4.622;2023-02-01T00:55:59;9.10;;;1.80;;
38499;SDS011;24269;51.894;4.622;2023-02-01T00:58:25;6.20;;;1.30;;
38499;SDS011;24269;51.894;4.622;2023-02-01T01:01:01;9.65;;;1.73;;
38499;SDS011;24269;51.894;4.622;2023-02-01T01:03:35;8.70;;;2.03;;
38499;SDS011;24269;51.894;4.622;2023-02-01T01:06:05;14.90;;;2.17;;
38499;SDS011;24269;51.894;4.622;2023-02-01T01:08:32;9.57;;;2.08;;
38499;SDS011;24269;51.894;4.622;2023-02-01T01:10:58;11.05;;;1.70;;
38499;SDS011;24269;51.894;4.622;2023-02-01T01:13:28;10.27;;;1.67;;
38499;SDS011;24269;51.894;4.622;2023-02-01T01:15:54;7.85;;;1.50;;
38499;SDS011;24269;51.894;4.622;2023-02-01T01:18:19;12.07;;;1.95;;
38499;SDS011;24269;51.894;4.622;2023-02-01T01:20:45;14.48;;;1.92;;
38499;SDS011;24269;51.894;4.622;2023-02-01T01:23:12;10.75;;;2.10;;
38499;SDS011;24269;51.894;4.622;2023-02-01T01:25:38;8.63;;;1.77;;
38499;SDS011;24269;51.894;4.622;2023-02-01T01:28:05;10.38;;;1.67;;
38499;SDS011;24269;51.894;4.622;2023-02-01T01:30:31;9.25;;;2.03;;
38499;SDS011;24269;51.894;4.622;2023-02-01T01:32:56;8.55;;;1.67;;
38499;SDS011;24269;51.894;4.622;2023-02-01T01:35:22;9.45;;;1.50;;
38499;SDS011;24269;51.894;4.622;2023-02-01T01:37:48;11.43;;;1.95;;
38499;SDS011;24269;51.894;4.622;2023-02-01T01:40:14;9.13;;;2.28;;
38499;SDS011;24269;51.894;4.622;2023-02-01T01:42:40;13.57;;;2.45;;
38499;SDS011;24269;51.894;4.622;2023-02-01T01:47:43;14.48;;;2.22;;
38499;SDS011;24269;51.894;4.622;2023-02-01T01:50:15;8.63;;;1.40;;
38499;SDS011;24269;51.894;4.622;2023-02-01T01:52:44;10.02;;;2.00;;
38499;SDS011;24269;51.894;4.622;2023-02-01T01:55:13;8.23;;;2.20;;
38499;SDS011;24269;51.894;4.622;2023-02-01T01:57:42;9.18;;;1.35;;
38499;SDS011;24269;51.894;4.622;2023-02-01T02:00:12;10.60;;;1.92;;
38499;SDS011;24269;51.894;4.622;2023-02-01T02:02:41;11.40;;;1.70;;
38499;SDS011;24269;51.894;4.622;2023-02-01T02:05:08;15.90;;;2.20;;
38499;SDS011;24269;51.894;4.622;2023-02-01T02:07:36;12.57;;;2.47;;
38499;SDS011;24269;51.894;4.622;2023-02-01T02:10:05;15.60;;;1.73;;
38499;SDS011;24269;51.894;4.622;2023-02-01T02:12:35;7.25;;;1.92;;
38499;SDS011;24269;51.894;4.622;2023-02-01T02:15:05;12.07;;;2.08;;
38499;SDS011;24269;51.894;4.622;2023-02-01T02:17:54;9.85;;;1.83;;
38499;SDS011;24269;51.894;4.622;2023-02-01T02:31:09;14.93;;;2.22;;
38499;SDS011;24269;51.894;4.622;2023-02-01T02:44:52;11.18;;;2.28;;
38499;SDS011;24269;51.894;4.622;2023-02-01T02:50:26;8.55;;;1.10;;
38499;SDS011;24269;51.894;4.622;2023-02-01T02:53:32;10.85;;;2.50;;
38499;SDS011;24269;51.894;4.622;2023-02-01T02:56:22;9.02;;;1.33;;
38499;SDS011;24269;51.894;4.622;2023-02-01T02:59:09;14.35;;;1.52;;
38499;SDS011;24269;51.894;4.622;2023-02-01T03:01:56;10.55;;;1.85;;
38499;SDS011;24269;51.894;4.622;2023-02-01T03:04:40;14.18;;;2.28;;
38499;SDS011;24269;51.894;4.622;2023-02-01T03:07:14;7.15;;;1.67;;
38499;SDS011;24269;51.894;4.622;2023-02-01T03:10:05;9.13;;;1.60;;
38499;SDS011;24269;51.894;4.622;2023-02-01T03:12:39;14.20;;;2.30;;
38499;SDS011;24269;51.894;4.622;2023-02-01T03:15:33;7.32;;;1.92;;
38499;SDS011;24269;51.894;4.622;2023-02-01T03:18:11;6.68;;;1.70;;
38499;SDS011;24269;51.894;4.622;2023-02-01T03:20:44;16.75;;;2.00;;
38499;SDS011;24269;51.894;4.622;2023-02-01T03:23:13;10.82;;;1.90;;
38499;SDS011;24269;51.894;4.622;2023-02-01T03:25:41;10.95;;;1.38;;
38499;SDS011;24269;51.894;4.622;2023-02-01T03:28:08;11.15;;;1.85;;
38499;SDS011;24269;51.894;4.622;2023-02-01T03:30:37;9.82;;;2.10;;
38499;SDS011;24269;51.894;4.622;2023-02-01T03:33:07;10.25;;;1.75;;
38499;SDS011;24269;51.894;4.622;2023-02-01T03:35:57;15.25;;;2.45;;
38499;SDS011;24269;51.894;4.622;2023-02-01T03:47:33;13.65;;;2.30;;
38499;SDS011;24269;51.894;4.622;2023-02-01T03:50:02;10.30;;;2.58;;
38499;SDS011;24269;51.894;4.622;2023-02-01T03:52:30;14.10;;;2.50;;
38499;SDS011;24269;51.894;4.622;2023-02-01T03:55:06;11.55;;;1.67;;
38499;SDS011;24269;51.894;4.622;2023-02-01T03:57:34;11.18;;;2.67;;
38499;SDS011;24269;51.894;4.622;2023-02-01T04:00:04;7.68;;;1.83;;
38499;SDS011;24269;51.894;4.622;2023-02-01T04:02:33;12.13;;;2.20;;
38499;SDS011;24269;51.894;4.622;2023-02-01T04:04:58;16.15;;;2.80;;
38499;SDS011;24269;51.894;4.622;2023-02-01T04:07:24;12.07;;;2.55;;
38499;SDS011;24269;51.894;4.622;2023-02-01T04:09:50;14.02;;;2.00;;
38499;SDS011;24269;51.894;4.622;2023-02-01T04:12:15;11.30;;;1.88;;
38499;SDS011;24269;51.894;4.622;2023-02-01T04:14:41;8.93;;;1.90;;
38499;SDS011;24269;51.894;4.622;2023-02-01T04:17:06;7.65;;;1.80;;
38499;SDS011;24269;51.894;4.622;2023-02-01T04:19:32;12.70;;;2.30;;
38499;SDS011;24269;51.894;4.622;2023-02-01T04:21:57;7.63;;;1.95;;
38499;SDS011;24269;51.894;4.622;2023-02-01T04:24:23;10.05;;;1.92;;
38499;SDS011;24269;51.894;4.622;2023-02-01T04:26:49;16.27;;;1.98;;
38499;SDS011;24269;51.894;4.622;2023-02-01T04:29:14;8.45;;;2.08;;
38499;SDS011;24269;51.894;4.622;2023-02-01T04:31:40;15.15;;;2.05;;
38499;SDS011;24269;51.894;4.622;2023-02-01T04:34:06;12.60;;;1.92;;
38499;SDS011;24269;51.894;4.622;2023-02-01T04:36:31;7.53;;;1.60;;
38499;SDS011;24269;51.894;4.622;2023-02-01T04:38:57;8.60;;;1.70;;
38499;SDS011;24269;51.894;4.622;2023-02-01T04:41:22;8.20;;;1.55;;
38499;SDS011;24269;51.894;4.622;2023-02-01T04:43:49;10.75;;;1.80;;
38499;SDS011;24269;51.894;4.622;2023-02-01T04:46:15;12.90;;;1.95;;
38499;SDS011;24269;51.894;4.622;2023-02-01T04:48:41;12.68;;;2.45;;
38499;SDS011;24269;51.894;4.622;2023-02-01T04:51:07;8.05;;;1.65;;
38499;SDS011;24269;51.894;4.622;2023-02-01T04:53:33;15.93;;;2.28;;
38499;SDS011;24269;51.894;4.622;2023-02-01T04:55:59;14.55;;;1.77;;
38499;SDS011;24269;51.894;4.622;2023-02-01T04:58:24;10.35;;;1.88;;
38499;SDS011;24269;51.894;4.622;2023-02-01T05:00:50;15.32;;;2.50;;
38499;SDS011;24269;51.894;4.622;2023-02-01T05:03:16;10.65;;;1.73;;
38499;SDS011;24269;51.894;4.622;2023-02-01T05:05:42;11.68;;;1.90;;
38499;SDS011;24269;51.894;4.622;2023-02-01T05:08:07;13.05;;;1.95;;
38499;SDS011;24269;51.894;4.622;2023-02-01T05:10:33;9.95;;;1.98;;
38499;SDS011;24269;51.894;4.622;2023-02-01T05:12:59;10.13;;;2.10;;
38499;SDS011;24269;51.894;4.622;2023-02-01T05:15:43;11.43;;;1.85;;
38499;SDS011;24269;51.894;4.622;2023-02-01T05:18:11;11.65;;;1.80;;
38499;SDS011;24269;51.894;4.622;2023-02-01T05:20:36;11.10;;;2.33;;
38499;SDS011;24269;51.894;4.622;2023-02-01T05:23:02;8.27;;;2.00;;
38499;SDS011;24269;51.894;4.622;2023-02-01T05:25:28;12.57;;;2.35;;
38499;SDS011;24269;51.894;4.622;2023-02-01T05:27:54;10.63;;;1.98;;
38499;SDS011;24269;51.894;4.622;2023-02-01T05:30:19;8.32;;;1.88;;
38499;SDS011;24269;51.894;4.622;2023-02-01T05:32:45;8.70;;;1.70;;
38499;SDS011;24269;51.894;4.622;2023-02-01T05:35:15;9.65;;;1.75;;
38499;SDS011;24269;51.894;4.622;2023-02-01T05:37:40;11.00;;;2.17;;
38499;SDS011;24269;51.894;4.622;2023-02-01T05:40:06;15.10;;;2.08;;
38499;SDS011;24269;51.894;4.622;2023-02-01T05:42:32;12.13;;;2.00;;
38499;SDS011;24269;51.894;4.622;2023-02-01T05:44:58;9.05;;;2.05;;
38499;SDS011;24269;51.894;4.622;2023-02-01T05:47:23;10.75;;;1.88;;
38499;SDS011;24269;51.894;4.622;2023-02-01T05:49:49;9.48;;;2.00;;
38499;SDS011;24269;51.894;4.622;2023-02-01T05:52:15;8.95;;;1.92;;
38499;SDS011;24269;51.894;4.622;2023-02-01T05:54:44;10.68;;;2.53;;
38499;SDS011;24269;51.894;4.622;2023-02-01T05:57:11;9.20;;;1.63;;
38499;SDS011;24269;51.894;4.622;2023-02-01T05:59:37;9.50;;;1.70;;
38499;SDS011;24269;51.894;4.622;2023-02-01T06:02:06;12.95;;;1.77;;
38499;SDS011;24269;51.894;4.622;2023-02-01T06:04:32;10.88;;;2.08;;
38499;SDS011;24269;51.894;4.622;2023-02-01T06:06:58;10.57;;;1.58;;
38499;SDS011;24269;51.894;4.622;2023-02-01T06:09:23;13.30;;;2.45;;
38499;SDS011;24269;51.894;4.622;2023-02-01T06:11:49;14.55;;;2.03;;
38499;SDS011;24269;51.894;4.622;2023-02-01T06:14:14;8.35;;;2.28;;
38499;SDS011;24269;51.894;4.622;2023-02-01T06:16:40;9.25;;;2.50;;
38499;SDS011;24269;51.894;4.622;2023-02-01T06:19:06;12.32;;;2.70;;
38499;SDS011;24269;51.894;4.622;2023-02-01T06:21:31;12.98;;;3.30;;
38499;SDS011;24269;51.894;4.622;2023-02-01T06:23:58;14.63;;;3.28;;
38499;SDS011;24269;51.894;4.622;2023-02-01T06:26:24;12.02;;;2.45;;
38499;SDS011;24269;51.894;4.622;2023-02-01T06:28:49;14.15;;;3.83;;
38499;SDS011;24269;51.894;4.622;2023-02-01T06:31:15;19.48;;;5.38;;
38499;SDS011;24269;51.894;4.622;2023-02-01T06:33:41;24.17;;;6.82;;
38499;SDS011;24269;51.894;4.622;2023-02-01T06:36:07;24.77;;;7.60;;
38499;SDS011;24269;51.894;4.622;2023-02-01T06:38:36;12.80;;;3.50;;
38499;SDS011;24269;51.894;4.622;2023-02-01T06:41:01;16.38;;;4.80;;
38499;SDS011;24269;51.894;4.622;2023-02-01T06:43:28;24.98;;;5.97;;
38499;SDS011;24269;51.894;4.622;2023-02-01T06:45:58;16.13;;;3.50;;
38499;SDS011;24269;51.894;4.622;2023-02-01T06:48:26;18.25;;;4.57;;
38499;SDS011;24269;51.894;4.622;2023-02-01T06:50:51;14.70;;;3.97;;
38499;SDS011;24269;51.894;4.622;2023-02-01T06:53:17;11.10;;;3.75;;
38499;SDS011;24269;51.894;4.622;2023-02-01T06:55:50;16.52;;;4.00;;
38499;SDS011;24269;51.894;4.622;2023-02-01T06:58:21;10.15;;;1.95;;
38499;SDS011;24269;51.894;4.622;2023-02-01T07:00:46;14.15;;;3.40;;
38499;SDS011;24269;51.894;4.622;2023-02-01T07:03:12;14.70;;;3.38;;
38499;SDS011;24269;51.894;4.622;2023-02-01T07:05:38;13.60;;;4.30;;
38499;SDS011;24269;51.894;4.622;2023-02-01T07:08:03;18.60;;;4.97;;
38499;SDS011;24269;51.894;4.622;2023-02-01T07:10:29;12.35;;;3.20;;
38499;SDS011;24269;51.894;4.622;2023-02-01T07:12:58;17.90;;;3.47;;
38499;SDS011;24269;51.894;4.622;2023-02-01T07:15:23;12.65;;;3.00;;
38499;SDS011;24269;51.894;4.622;2023-02-01T07:17:49;11.80;;;2.25;;
38499;SDS011;24269;51.894;4.622;2023-02-01T07:20:15;14.77;;;3.42;;
38499;SDS011;24269;51.894;4.622;2023-02-01T07:22:41;22.88;;;3.42;;
38499;SDS011;24269;51.894;4.622;2023-02-01T07:25:07;10.05;;;2.65;;
38499;SDS011;24269;51.894;4.622;2023-02-01T07:27:33;15.20;;;5.07;;
38499;SDS011;24269;51.894;4.622;2023-02-01T07:29:59;25.50;;;7.28;;
38499;SDS011;24269;51.894;4.622;2023-02-01T07:32:27;15.60;;;4.35;;
38499;SDS011;24269;51.894;4.622;2023-02-01T07:34:53;17.77;;;4.53;;
38499;SDS011;24269;51.894;4.622;2023-02-01T07:37:19;19.20;;;4.55;;
38499;SDS011;24269;51.894;4.622;2023-02-01T07:39:44;18.20;;;5.22;;
38499;SDS011;24269;51.894;4.622;2023-02-01T07:42:10;19.35;;;4.60;;
38499;SDS011;24269;51.894;4.622;2023-02-01T07:44:35;15.20;;;3.88;;
38499;SDS011;24269;51.894;4.622;2023-02-01T07:47:01;18.00;;;4.13;;
38499;SDS011;24269;51.894;4.622;2023-02-01T07:49:27;10.27;;;3.15;;
38499;SDS011;24269;51.894;4.622;2023-02-01T07:51:52;18.35;;;4.15;;
38499;SDS011;24269;51.894;4.622;2023-02-01T07:54:18;12.35;;;3.05;;
38499;SDS011;24269;51.894;4.622;2023-02-01T07:56:43;14.23;;;2.90;;
38499;SDS011;24269;51.894;4.622;2023-02-01T07:59:09;12.82;;;2.75;;
38499;SDS011;24269;51.894;4.622;2023-02-01T08:01:36;11.07;;;2.70;;
38499;SDS011;24269;51.894;4.622;2023-02-01T08:04:02;11.70;;;2.67;;
38499;SDS011;24269;51.894;4.622;2023-02-01T08:06:29;11.70;;;2.05;;
38499;SDS011;24269;51.894;4.622;2023-02-01T08:08:56;13.13;;;2.38;;
38499;SDS011;24269;51.894;4.622;2023-02-01T08:11:22;13.48;;;3.03;;
38499;SDS011;24269;51.894;4.622;2023-02-01T08:13:49;14.25;;;2.78;;
38499;SDS011;24269;51.894;4.622;2023-02-01T08:16:16;8.75;;;1.85;;
38499;SDS011;24269;51.894;4.622;2023-02-01T08:18:43;8.88;;;2.08;;
38499;SDS011;24269;51.894;4.622;2023-02-01T08:21:14;11.52;;;2.42;;
38499;SDS011;24269;51.894;4.622;2023-02-01T08:23:40;15.10;;;2.75;;
38499;SDS011;24269;51.894;4.622;2023-02-01T08:26:19;11.20;;;1.77;;
38499;SDS011;24269;51.894;4.622;2023-02-01T08:28:48;11.20;;;2.42;;
38499;SDS011;24269;51.894;4.622;2023-02-01T08:31:17;10.35;;;2.75;;
38499;SDS011;24269;51.894;4.622;2023-02-01T08:33:48;16.13;;;2.65;;
38499;SDS011;24269;51.894;4.622;2023-02-01T08:36:19;20.05;;;3.78;;
38499;SDS011;24269;51.894;4.622;2023-02-01T08:38:45;14.25;;;2.78;;
38499;SDS011;24269;51.894;4.622;2023-02-01T08:41:16;20.88;;;5.95;;
38499;SDS011;24269;51.894;4.622;2023-02-01T08:43:43;16.88;;;5.50;;
38499;SDS011;24269;51.894;4.622;2023-02-01T08:46:09;13.43;;;3.28;;
38499;SDS011;24269;51.894;4.622;2023-02-01T08:48:35;14.63;;;3.53;;
38499;SDS011;24269;51.894;4.622;2023-02-01T08:51:02;16.40;;;3.15;;
38499;SDS011;24269;51.894;4.622;2023-02-01T08:53:30;14.82;;;2.67;;
38499;SDS011;24269;51.894;4.622;2023-02-01T08:55:56;9.77;;;3.08;;
38499;SDS011;24269;51.894;4.622;2023-02-01T08:58:21;18.63;;;3.50;;
38499;SDS011;24269;51.894;4.622;2023-02-01T09:00:47;11.85;;;3.47;;
38499;SDS011;24269;51.894;4.622;2023-02-01T09:03:13;19.50;;;3.58;;
38499;SDS011;24269;51.894;4.622;2023-02-01T09:05:39;15.85;;;2.72;;
38499;SDS011;24269;51.894;4.622;2023-02-01T09:08:05;11.13;;;2.08;;
38499;SDS011;24269;51.894;4.622;2023-02-01T09:10:31;13.70;;;3.17;;
38499;SDS011;24269;51.894;4.622;2023-02-01T09:12:57;15.27;;;3.83;;
38499;SDS011;24269;51.894;4.622;2023-02-01T09:15:23;12.70;;;2.88;;
38499;SDS011;24269;51.894;4.622;2023-02-01T09:17:49;14.00;;;3.22;;
38499;SDS011;24269;51.894;4.622;2023-02-01T09:20:14;14.88;;;3.15;;
38499;SDS011;24269;51.894;4.622;2023-02-01T09:22:40;13.55;;;3.42;;
38499;SDS011;24269;51.894;4.622;2023-02-01T09:25:06;8.98;;;2.00;;
38499;SDS011;24269;51.894;4.622;2023-02-01T09:27:32;13.48;;;2.95;;
38499;SDS011;24269;51.894;4.622;2023-02-01T09:29:58;14.70;;;3.10;;
38499;SDS011;24269;51.894;4.622;2023-02-01T09:32:24;10.93;;;1.85;;
38499;SDS011;24269;51.894;4.622;2023-02-01T09:34:50;10.93;;;2.13;;
38499;SDS011;24269;51.894;4.622;2023-02-01T09:37:17;12.45;;;2.55;;
38499;SDS011;24269;51.894;4.622;2023-02-01T09:39:43;16.02;;;3.75;;
38499;SDS011;24269;51.894;4.622;2023-02-01T09:42:18;15.95;;;2.85;;
38499;SDS011;24269;51.894;4.622;2023-02-01T09:47:42;8.27;;;2.00;;
38499;SDS011;24269;51.894;4.622;2023-02-01T09:50:21;9.23;;;1.70;;
38499;SDS011;24269;51.894;4.622;2023-02-01T09:53:01;9.90;;;2.17;;
38499;SDS011;24269;51.894;4.622;2023-02-01T09:58:09;10.18;;;1.52;;
38499;SDS011;24269;51.894;4.622;2023-02-01T10:00:42;7.13;;;1.48;;
38499;SDS011;24269;51.894;4.622;2023-02-01T10:03:16;8.80;;;1.50;;
38499;SDS011;24269;51.894;4.622;2023-02-01T10:20:25;42.75;;;8.25;;
38499;SDS011;24269;51.894;4.622;2023-02-01T10:25:54;37.28;;;8.52;;
38499;SDS011;24269;51.894;4.622;2023-02-01T10:28:20;32.45;;;8.60;;
38499;SDS011;24269;51.894;4.622;2023-02-01T10:30:47;33.78;;;7.30;;
38499;SDS011;24269;51.894;4.622;2023-02-01T10:33:24;21.35;;;5.40;;
38499;SDS011;24269;51.894;4.622;2023-02-01T10:36:18;47.83;;;10.05;;
38499;SDS011;24269;51.894;4.622;2023-02-01T10:39:01;29.33;;;6.32;;
38499;SDS011;24269;51.894;4.622;2023-02-01T10:41:33;26.02;;;6.65;;
38499;SDS011;24269;51.894;4.622;2023-02-01T10:44:00;16.05;;;2.95;;
38499;SDS011;24269;51.894;4.622;2023-02-01T10:46:30;14.43;;;3.53;;
38499;SDS011;24269;51.894;4.622;2023-02-01T10:48:56;14.52;;;4.30;;
38499;SDS011;24269;51.894;4.622;2023-02-01T10:52:10;13.07;;;2.65;;
38499;SDS011;24269;51.894;4.622;2023-02-01T10:54:22;11.27;;;2.35;;
38499;SDS011;24269;51.894;4.622;2023-02-01T10:57:03;12.07;;;2.65;;
38499;SDS011;24269;51.894;4.622;2023-02-01T10:59:44;12.85;;;2.50;;
38499;SDS011;24269;51.894;4.622;2023-02-01T11:02:19;14.63;;;2.03;;
38499;SDS011;24269;51.894;4.622;2023-02-01T11:05:04;13.40;;;2.63;;
38499;SDS011;24269;51.894;4.622;2023-02-01T11:07:34;9.73;;;1.80;;
38499;SDS011;24269;51.894;4.622;2023-02-01T11:10:01;9.90;;;2.15;;
38499;SDS011;24269;51.894;4.622;2023-02-01T11:12:35;12.93;;;2.55;;
38499;SDS011;24269;51.894;4.622;2023-02-01T11:17:39;7.07;;;1.52;;
38499;SDS011;24269;51.894;4.622;2023-02-01T11:23:02;8.88;;;2.05;;
38499;SDS011;24269;51.894;4.622;2023-02-01T11:25:28;14.77;;;2.38;;
38499;SDS011;24269;51.894;4.622;2023-02-01T11:27:55;9.50;;;2.08;;
38499;SDS011;24269;51.894;4.622;2023-02-01T11:30:31;8.88;;;1.60;;
38499;SDS011;24269;51.894;4.622;2023-02-01T11:33:01;13.60;;;2.50;;
38499;SDS011;24269;51.894;4.622;2023-02-01T11:35:28;13.20;;;2.10;;
38499;SDS011;24269;51.894;4.622;2023-02-01T11:37:55;8.02;;;1.13;;
38499;SDS011;24269;51.894;4.622;2023-02-01T11:40:37;11.77;;;1.85;;
38499;SDS011;24269;51.894;4.622;2023-02-01T11:43:14;9.60;;;1.70;;
38499;SDS011;24269;51.894;4.622;2023-02-01T11:45:59;8.82;;;1.65;;
38499;SDS011;24269;51.894;4.622;2023-02-01T11:48:27;14.20;;;1.90;;
38499;SDS011;24269;51.894;4.622;2023-02-01T11:51:04;14.20;;;1.98;;
38499;SDS011;24269;51.894;4.622;2023-02-01T11:56:23;15.18;;;1.50;;
38499;SDS011;24269;51.894;4.622;2023-02-01T11:59:49;10.48;;;2.03;;
38499;SDS011;24269;51.894;4.622;2023-02-01T12:10:35;10.90;;;2.47;;
38499;SDS011;24269;51.894;4.622;2023-02-01T12:13:22;11.45;;;2.25;;
38499;SDS011;24269;51.894;4.622;2023-02-01T12:19:20;15.90;;;2.27;;
38499;SDS011;24269;51.894;4.622;2023-02-01T12:25:09;10.75;;;1.65;;
38499;SDS011;24269;51.894;4.622;2023-02-01T12:41:02;10.77;;;1.58;;
38499;SDS011;24269;51.894;4.622;2023-02-01T12:43:49;8.57;;;1.42;;
38499;SDS011;24269;51.894;4.622;2023-02-01T12:51:26;9.63;;;1.60;;
38499;SDS011;24269;51.894;4.622;2023-02-01T12:59:24;14.98;;;2.25;;
38499;SDS011;24269;51.894;4.622;2023-02-01T13:04:59;9.27;;;1.42;;
38499;SDS011;24269;51.894;4.622;2023-02-01T13:07:36;9.00;;;1.50;;
38499;SDS011;24269;51.894;4.622;2023-02-01T13:10:15;8.63;;;1.65;;
38499;SDS011;24269;51.894;4.622;2023-02-01T13:12:59;6.47;;;1.63;;
38499;SDS011;24269;51.894;4.622;2023-02-01T13:15:43;7.63;;;1.85;;
38499;SDS011;24269;51.894;4.622;2023-02-01T13:18:32;7.35;;;1.50;;
38499;SDS011;24269;51.894;4.622;2023-02-01T13:26:00;6.80;;;1.50;;
38499;SDS011;24269;51.894;4.622;2023-02-01T13:28:39;6.95;;;1.50;;
38499;SDS011;24269;51.894;4.622;2023-02-01T13:42:25;10.18;;;2.72;;
38499;SDS011;24269;51.894;4.622;2023-02-01T13:44:57;7.38;;;1.77;;
38499;SDS011;24269;51.894;4.622;2023-02-01T13:47:32;11.30;;;1.40;;
38499;SDS011;24269;51.894;4.622;2023-02-01T13:55:38;12.68;;;2.00;;
38499;SDS011;24269;51.894;4.622;2023-02-01T13:58:17;12.00;;;1.52;;
38499;SDS011;24269;51.894;4.622;2023-02-01T14:00:43;9.70;;;1.98;;
38499;SDS011;24269;51.894;4.622;2023-02-01T14:03:18;10.85;;;2.13;;
38499;SDS011;24269;51.894;4.622;2023-02-01T14:08:13;14.25;;;1.92;;
38499;SDS011;24269;51.894;4.622;2023-02-01T14:29:38;10.32;;;2.03;;
38499;SDS011;24269;51.894;4.622;2023-02-01T14:32:06;9.48;;;1.75;;
38499;SDS011;24269;51.894;4.622;2023-02-01T14:47:47;11.20;;;2.35;;
38499;SDS011;24269;51.894;4.622;2023-02-01T14:53:04;13.23;;;2.28;;
38499;SDS011;24269;51.894;4.622;2023-02-01T15:01:13;16.00;;;3.95;;
38499;SDS011;24269;51.894;4.622;2023-02-01T15:03:51;35.35;;;13.48;;
38499;SDS011;24269;51.894;4.622;2023-02-01T15:09:19;25.10;;;9.15;;
38499;SDS011;24269;51.894;4.622;2023-02-01T15:14:39;21.17;;;6.85;;
38499;SDS011;24269;51.894;4.622;2023-02-01T15:19:59;25.50;;;7.23;;
38499;SDS011;24269;51.894;4.622;2023-02-01T15:22:27;26.70;;;7.95;;
38499;SDS011;24269;51.894;4.622;2023-02-01T15:24:58;17.10;;;5.40;;
38499;SDS011;24269;51.894;4.622;2023-02-01T15:27:25;23.88;;;5.40;;
38499;SDS011;24269;51.894;4.622;2023-02-01T15:29:52;19.48;;;4.50;;
38499;SDS011;24269;51.894;4.622;2023-02-01T15:32:34;19.90;;;5.63;;
38499;SDS011;24269;51.894;4.622;2023-02-01T15:35:05;15.48;;;3.60;;
38499;SDS011;24269;51.894;4.622;2023-02-01T15:37:51;15.93;;;3.67;;
38499;SDS011;24269;51.894;4.622;2023-02-01T15:40:20;18.60;;;4.28;;
38499;SDS011;24269;51.894;4.622;2023-02-01T15:42:53;12.80;;;2.47;;
38499;SDS011;24269;51.894;4.622;2023-02-01T15:47:48;18.60;;;3.05;;
38499;SDS011;24269;51.894;4.622;2023-02-01T15:50:16;14.85;;;3.63;;
38499;SDS011;24269;51.894;4.622;2023-02-01T15:52:45;15.57;;;3.30;;
38499;SDS011;24269;51.894;4.622;2023-02-01T15:55:20;13.77;;;4.00;;
38499;SDS011;24269;51.894;4.622;2023-02-01T15:57:49;15.82;;;4.05;;
38499;SDS011;24269;51.894;4.622;2023-02-01T16:03:05;17.48;;;3.35;;
38499;SDS011;24269;51.894;4.622;2023-02-01T16:05:53;17.45;;;4.32;;
38499;SDS011;24269;51.894;4.622;2023-02-01T16:08:22;12.05;;;3.10;;
38499;SDS011;24269;51.894;4.622;2023-02-01T16:10:51;20.48;;;7.38;;
38499;SDS011;24269;51.894;4.622;2023-02-01T16:13:18;11.98;;;4.25;;
38499;SDS011;24269;51.894;4.622;2023-02-01T16:15:45;19.80;;;5.50;;
38499;SDS011;24269;51.894;4.622;2023-02-01T16:18:12;16.60;;;4.60;;
38499;SDS011;24269;51.894;4.622;2023-02-01T16:20:39;13.23;;;4.72;;
38499;SDS011;24269;51.894;4.622;2023-02-01T16:23:06;19.67;;;6.70;;
38499;SDS011;24269;51.894;4.622;2023-02-01T16:25:33;23.00;;;7.88;;
38499;SDS011;24269;51.894;4.622;2023-02-01T16:27:59;23.38;;;9.05;;
38499;SDS011;24269;51.894;4.622;2023-02-01T16:30:24;14.48;;;4.88;;
38499;SDS011;24269;51.894;4.622;2023-02-01T16:32:54;11.23;;;2.85;;
38499;SDS011;24269;51.894;4.622;2023-02-01T16:35:23;14.43;;;2.95;;
38499;SDS011;24269;51.894;4.622;2023-02-01T16:37:50;11.75;;;1.98;;
38499;SDS011;24269;51.894;4.622;2023-02-01T16:40:16;15.90;;;4.10;;
38499;SDS011;24269;51.894;4.622;2023-02-01T16:42:44;11.05;;;2.28;;
38499;SDS011;24269;51.894;4.622;2023-02-01T16:45:12;17.33;;;3.40;;
38499;SDS011;24269;51.894;4.622;2023-02-01T16:47:38;19.95;;;5.82;;
38499;SDS011;24269;51.894;4.622;2023-02-01T16:50:28;15.88;;;3.78;;
38499;SDS011;24269;51.894;4.622;2023-02-01T16:52:56;17.23;;;4.05;;
38499;SDS011;24269;51.894;4.622;2023-02-01T16:55:21;17.20;;;3.72;;
38499;SDS011;24269;51.894;4.622;2023-02-01T16:57:47;15.52;;;3.90;;
38499;SDS011;24269;51.894;4.622;2023-02-01T17:00:13;15.60;;;3.40;;
38499;SDS011;24269;51.894;4.622;2023-02-01T17:02:40;22.92;;;4.80;;
38499;SDS011;24269;51.894;4.622;2023-02-01T17:05:07;25.98;;;6.88;;
38499;SDS011;24269;51.894;4.622;2023-02-01T17:07:33;10.05;;;3.17;;
38499;SDS011;24269;51.894;4.622;2023-02-01T17:10:00;17.33;;;4.65;;
38499;SDS011;24269;51.894;4.622;2023-02-01T17:12:28;14.73;;;3.33;;
38499;SDS011;24269;51.894;4.622;2023-02-01T17:14:55;11.70;;;4.38;;
38499;SDS011;24269;51.894;4.622;2023-02-01T17:17:22;14.00;;;3.15;;
38499;SDS011;24269;51.894;4.622;2023-02-01T17:19:51;11.40;;;2.17;;
38499;SDS011;24269;51.894;4.622;2023-02-01T17:22:18;52.30;;;17.27;;
38499;SDS011;24269;51.894;4.622;2023-02-01T17:24:45;18.20;;;6.75;;
38499;SDS011;24269;51.894;4.622;2023-02-01T17:27:11;15.00;;;2.80;;
38499;SDS011;24269;51.894;4.622;2023-02-01T17:29:36;8.88;;;2.22;;
38499;SDS011;24269;51.894;4.622;2023-02-01T17:32:02;7.50;;;2.05;;
38499;SDS011;24269;51.894;4.622;2023-02-01T17:34:29;18.08;;;4.28;;
38499;SDS011;24269;51.894;4.622;2023-02-01T17:36:54;17.52;;;4.28;;
38499;SDS011;24269;51.894;4.622;2023-02-01T17:39:20;25.13;;;5.32;;
38499;SDS011;24269;51.894;4.622;2023-02-01T17:42:05;13.55;;;4.70;;
38499;SDS011;24269;51.894;4.622;2023-02-01T17:44:35;19.27;;;4.10;;
38499;SDS011;24269;51.894;4.622;2023-02-01T17:47:01;20.63;;;4.53;;
38499;SDS011;24269;51.894;4.622;2023-02-01T17:49:26;13.02;;;3.83;;
38499;SDS011;24269;51.894;4.622;2023-02-01T17:51:55;14.38;;;3.88;;
38499;SDS011;24269;51.894;4.622;2023-02-01T17:54:22;17.45;;;3.70;;
38499;SDS011;24269;51.894;4.622;2023-02-01T17:56:47;24.77;;;7.22;;
38499;SDS011;24269;51.894;4.622;2023-02-01T17:59:13;32.35;;;13.05;;
38499;SDS011;24269;51.894;4.622;2023-02-01T18:01:40;17.77;;;5.35;;